sensor_id;sensor_type;location;lat;lon;timestamp;temperature;humidity
11615;DHT22;5863;52.832;4.758;2022-10-16T00:00:38;14.80;99.90
11615;DHT22;5863;52.832;4.758;2022-10-16T00:03:06;14.90;99.90
11615;DHT22;5863;52.832;4.758;2022-10-16T00:05:38;14.90;99.90
11615;DHT22;5863;52.832;4.758;2022-10-16T00:08:05;14.90;99.90
11615;DHT22;5863;52.832;4.758;2022-10-16T00:10:31;14.90;99.90
11615;DHT22;5863;52.832;4.758;2022-10-16T00:13:00;14.90;99.90
11615;DHT22;5863;52.832;4.758;2022-10-16T00:15:27;14.90;99.90
11615;DHT22;5863;52.832;4.758;2022-10-16T00:17:53;15.00;99.90
11615;DHT22;5863;52.832;4.758;2022-10-16T00:20:20;14.90;99.90
11615;DHT22;5863;52.832;4.758;2022-10-16T00:22:47;15.00;99.90
11615;DHT22;5863;52.832;4.758;2022-10-16T00:25:14;15.00;99.90
11615;DHT22;5863;52.832;4.758;2022-10-16T00:27:40;15.00;99.90
11615;DHT22;5863;52.832;4.758;2022-10-16T00:30:09;15.10;99.90
11615;DHT22;5863;52.832;4.758;2022-10-16T00:32:36;15.00;99.90
11615;DHT22;5863;52.832;4.758;2022-10-16T00:35:04;15.00;99.90
11615;DHT22;5863;52.832;4.758;2022-10-16T00:37:31;15.00;99.90
11615;DHT22;5863;52.832;4.758;2022-10-16T00:39:58;15.00;99.90
11615;DHT22;5863;52.832;4.758;2022-10-16T00:42:25;14.90;99.90
11615;DHT22;5863;52.832;4.758;2022-10-16T00:44:53;14.80;99.90
11615;DHT22;5863;52.832;4.758;2022-10-16T00:47:27;14.80;99.90
11615;DHT22;5863;52.832;4.758;2022-10-16T00:49:58;14.80;99.90
11615;DHT22;5863;52.832;4.758;2022-10-16T00:52:26;14.80;99.90
11615;DHT22;5863;52.832;4.758;2022-10-16T00:54:54;14.90;99.90
11615;DHT22;5863;52.832;4.758;2022-10-16T00:57:21;14.80;99.90
11615;DHT22;5863;52.832;4.758;2022-10-16T00:59:48;14.80;99.90
11615;DHT22;5863;52.832;4.758;2022-10-16T01:02:16;14.70;99.90
11615;DHT22;5863;52.832;4.758;2022-10-16T01:04:46;14.60;99.90
11615;DHT22;5863;52.832;4.758;2022-10-16T01:07:18;14.70;99.90
11615;DHT22;5863;52.832;4.758;2022-10-16T01:09:57;14.60;99.90
11615;DHT22;5863;52.832;4.758;2022-10-16T01:12:33;14.60;99.90
11615;DHT22;5863;52.832;4.758;2022-10-16T01:15:08;14.70;99.90
11615;DHT22;5863;52.832;4.758;2022-10-16T01:17:43;14.70;99.90
11615;DHT22;5863;52.832;4.758;2022-10-16T01:20:19;14.70;99.90
11615;DHT22;5863;52.832;4.758;2022-10-16T01:22:59;14.80;99.90
11615;DHT22;5863;52.832;4.758;2022-10-16T01:25:37;14.80;99.90
11615;DHT22;5863;52.832;4.758;2022-10-16T01:28:09;14.80;99.90
11615;DHT22;5863;52.832;4.758;2022-10-16T01:30:37;14.70;99.90
11615;DHT22;5863;52.832;4.758;2022-10-16T01:33:10;14.70;99.90
11615;DHT22;5863;52.832;4.758;2022-10-16T01:35:42;14.60;99.90
11615;DHT22;5863;52.832;4.758;2022-10-16T01:38:14;14.60;99.90
11615;DHT22;5863;52.832;4.758;2022-10-16T01:40:47;14.50;99.90
11615;DHT22;5863;52.832;4.758;2022-10-16T01:43:20;14.40;99.90
11615;DHT22;5863;52.832;4.758;2022-10-16T01:45:49;14.50;99.90
11615;DHT22;5863;52.832;4.758;2022-10-16T01:48:18;14.50;99.90
11615;DHT22;5863;52.832;4.758;2022-10-16T01:50:52;14.50;99.90
11615;DHT22;5863;52.832;4.758;2022-10-16T01:53:20;14.50;99.90
11615;DHT22;5863;52.832;4.758;2022-10-16T01:55:49;14.50;99.90
11615;DHT22;5863;52.832;4.758;2022-10-16T01:58:18;14.50;99.90
11615;DHT22;5863;52.832;4.758;2022-10-16T02:00:46;14.50;99.90
11615;DHT22;5863;52.832;4.758;2022-10-16T02:03:17;14.50;99.90
11615;DHT22;5863;52.832;4.758;2022-10-16T02:05:47;14.40;99.90
11615;DHT22;5863;52.832;4.758;2022-10-16T02:08:15;14.50;99.90
11615;DHT22;5863;52.832;4.758;2022-10-16T02:10:42;14.40;99.90
11615;DHT22;5863;52.832;4.758;2022-10-16T02:13:11;14.40;99.90
11615;DHT22;5863;52.832;4.758;2022-10-16T02:15:40;14.40;99.90
11615;DHT22;5863;52.832;4.758;2022-10-16T02:18:07;14.40;99.90
11615;DHT22;5863;52.832;4.758;2022-10-16T02:20:40;14.40;99.90
11615;DHT22;5863;52.832;4.758;2022-10-16T02:23:12;14.40;99.90
11615;DHT22;5863;52.832;4.758;2022-10-16T02:25:45;14.40;99.90
11615;DHT22;5863;52.832;4.758;2022-10-16T02:28:16;14.40;99.90
11615;DHT22;5863;52.832;4.758;2022-10-16T02:30:50;14.50;99.90
11615;DHT22;5863;52.832;4.758;2022-10-16T02:33:18;14.50;99.90
11615;DHT22;5863;52.832;4.758;2022-10-16T02:35:47;14.50;99.90
11615;DHT22;5863;52.832;4.758;2022-10-16T02:38:15;14.50;99.90
11615;DHT22;5863;52.832;4.758;2022-10-16T02:40:42;14.60;99.90
11615;DHT22;5863;52.832;4.758;2022-10-16T02:43:09;14.50;99.90
11615;DHT22;5863;52.832;4.758;2022-10-16T02:45:37;14.50;99.90
11615;DHT22;5863;52.832;4.758;2022-10-16T02:48:06;14.50;99.90
11615;DHT22;5863;52.832;4.758;2022-10-16T02:50:33;14.50;99.90
11615;DHT22;5863;52.832;4.758;2022-10-16T02:53:00;14.60;99.90
11615;DHT22;5863;52.832;4.758;2022-10-16T02:55:26;14.60;99.90
11615;DHT22;5863;52.832;4.758;2022-10-16T02:57:54;14.60;99.90
11615;DHT22;5863;52.832;4.758;2022-10-16T03:00:20;14.60;99.90
11615;DHT22;5863;52.832;4.758;2022-10-16T03:02:47;14.70;99.90
11615;DHT22;5863;52.832;4.758;2022-10-16T03:05:16;14.70;99.90
11615;DHT22;5863;52.832;4.758;2022-10-16T03:07:42;14.70;99.90
11615;DHT22;5863;52.832;4.758;2022-10-16T03:10:11;14.70;99.90
11615;DHT22;5863;52.832;4.758;2022-10-16T03:12:38;14.70;99.90
11615;DHT22;5863;52.832;4.758;2022-10-16T03:15:06;14.70;99.90
11615;DHT22;5863;52.832;4.758;2022-10-16T03:17:33;14.60;99.90
11615;DHT22;5863;52.832;4.758;2022-10-16T03:20:00;14.70;99.90
11615;DHT22;5863;52.832;4.758;2022-10-16T03:22:28;14.70;99.90
11615;DHT22;5863;52.832;4.758;2022-10-16T03:24:56;14.60;99.90
11615;DHT22;5863;52.832;4.758;2022-10-16T03:27:23;14.60;99.90
11615;DHT22;5863;52.832;4.758;2022-10-16T03:29:50;14.60;99.90
11615;DHT22;5863;52.832;4.758;2022-10-16T03:32:17;14.60;99.90
11615;DHT22;5863;52.832;4.758;2022-10-16T03:34:43;14.60;99.90
11615;DHT22;5863;52.832;4.758;2022-10-16T03:37:10;14.60;99.90
11615;DHT22;5863;52.832;4.758;2022-10-16T03:39:38;14.60;99.90
11615;DHT22;5863;52.832;4.758;2022-10-16T03:42:05;14.60;99.90
11615;DHT22;5863;52.832;4.758;2022-10-16T03:44:32;14.60;99.90
11615;DHT22;5863;52.832;4.758;2022-10-16T03:46:59;14.50;99.90
11615;DHT22;5863;52.832;4.758;2022-10-16T03:49:25;14.50;99.90
11615;DHT22;5863;52.832;4.758;2022-10-16T03:51:52;14.50;99.90
11615;DHT22;5863;52.832;4.758;2022-10-16T03:54:19;14.50;99.90
11615;DHT22;5863;52.832;4.758;2022-10-16T03:56:47;14.50;99.90
11615;DHT22;5863;52.832;4.758;2022-10-16T03:59:13;14.40;99.90
11615;DHT22;5863;52.832;4.758;2022-10-16T04:01:40;14.40;99.90
11615;DHT22;5863;52.832;4.758;2022-10-16T04:04:07;14.40;99.90
11615;DHT22;5863;52.832;4.758;2022-10-16T04:06:33;14.40;99.90
11615;DHT22;5863;52.832;4.758;2022-10-16T04:09:00;14.40;99.90
11615;DHT22;5863;52.832;4.758;2022-10-16T04:11:27;14.30;99.90
11615;DHT22;5863;52.832;4.758;2022-10-16T04:13:55;14.20;99.90
11615;DHT22;5863;52.832;4.758;2022-10-16T04:16:21;14.20;99.90
11615;DHT22;5863;52.832;4.758;2022-10-16T04:18:48;14.30;99.90
11615;DHT22;5863;52.832;4.758;2022-10-16T04:21:15;14.30;99.90
11615;DHT22;5863;52.832;4.758;2022-10-16T04:23:42;14.20;99.90
11615;DHT22;5863;52.832;4.758;2022-10-16T04:26:09;14.30;99.90
11615;DHT22;5863;52.832;4.758;2022-10-16T04:28:36;14.30;99.90
11615;DHT22;5863;52.832;4.758;2022-10-16T04:31:05;14.30;99.90
11615;DHT22;5863;52.832;4.758;2022-10-16T04:33:32;14.30;99.90
11615;DHT22;5863;52.832;4.758;2022-10-16T04:36:00;14.20;99.90
11615;DHT22;5863;52.832;4.758;2022-10-16T04:38:28;14.20;99.90
11615;DHT22;5863;52.832;4.758;2022-10-16T04:40:55;14.20;99.90
11615;DHT22;5863;52.832;4.758;2022-10-16T04:43:23;14.10;99.90
11615;DHT22;5863;52.832;4.758;2022-10-16T04:45:49;14.20;99.90
11615;DHT22;5863;52.832;4.758;2022-10-16T04:48:18;14.20;99.90
11615;DHT22;5863;52.832;4.758;2022-10-16T04:50:45;14.20;99.90
11615;DHT22;5863;52.832;4.758;2022-10-16T04:53:11;14.20;99.90
11615;DHT22;5863;52.832;4.758;2022-10-16T04:55:38;14.10;99.90
11615;DHT22;5863;52.832;4.758;2022-10-16T04:58:05;14.10;99.90
11615;DHT22;5863;52.832;4.758;2022-10-16T05:00:32;14.10;99.90
11615;DHT22;5863;52.832;4.758;2022-10-16T05:02:59;14.10;99.90
11615;DHT22;5863;52.832;4.758;2022-10-16T05:05:27;14.10;99.90
11615;DHT22;5863;52.832;4.758;2022-10-16T05:07:54;14.10;99.90
11615;DHT22;5863;52.832;4.758;2022-10-16T05:10:22;14.10;99.90
11615;DHT22;5863;52.832;4.758;2022-10-16T05:12:48;14.10;99.90
11615;DHT22;5863;52.832;4.758;2022-10-16T05:15:16;14.10;99.90
11615;DHT22;5863;52.832;4.758;2022-10-16T05:17:43;14.10;99.90
11615;DHT22;5863;52.832;4.758;2022-10-16T05:20:10;14.10;99.90
11615;DHT22;5863;52.832;4.758;2022-10-16T05:22:38;14.10;99.90
11615;DHT22;5863;52.832;4.758;2022-10-16T05:25:06;14.10;99.90
11615;DHT22;5863;52.832;4.758;2022-10-16T05:27:33;14.10;99.90
11615;DHT22;5863;52.832;4.758;2022-10-16T05:29:59;14.10;99.90
11615;DHT22;5863;52.832;4.758;2022-10-16T05:32:26;14.10;99.90
11615;DHT22;5863;52.832;4.758;2022-10-16T05:34:52;14.10;99.90
11615;DHT22;5863;52.832;4.758;2022-10-16T05:37:19;14.20;99.90
11615;DHT22;5863;52.832;4.758;2022-10-16T05:39:47;14.20;99.90
11615;DHT22;5863;52.832;4.758;2022-10-16T05:42:14;14.10;99.90
11615;DHT22;5863;52.832;4.758;2022-10-16T05:44:41;14.10;99.90
11615;DHT22;5863;52.832;4.758;2022-10-16T05:47:07;14.00;99.90
11615;DHT22;5863;52.832;4.758;2022-10-16T05:49:34;14.00;99.90
11615;DHT22;5863;52.832;4.758;2022-10-16T05:52:01;13.90;99.90
11615;DHT22;5863;52.832;4.758;2022-10-16T05:54:28;13.90;99.90
11615;DHT22;5863;52.832;4.758;2022-10-16T05:56:56;14.00;99.90
11615;DHT22;5863;52.832;4.758;2022-10-16T05:59:22;14.00;99.90
11615;DHT22;5863;52.832;4.758;2022-10-16T06:01:49;14.00;99.90
11615;DHT22;5863;52.832;4.758;2022-10-16T06:04:16;14.00;99.90
11615;DHT22;5863;52.832;4.758;2022-10-16T06:06:43;14.00;99.90
11615;DHT22;5863;52.832;4.758;2022-10-16T06:09:10;14.00;99.90
11615;DHT22;5863;52.832;4.758;2022-10-16T06:11:37;14.10;99.90
11615;DHT22;5863;52.832;4.758;2022-10-16T06:14:05;14.10;99.90
11615;DHT22;5863;52.832;4.758;2022-10-16T06:16:33;14.10;99.90
11615;DHT22;5863;52.832;4.758;2022-10-16T06:19:01;14.10;99.90
11615;DHT22;5863;52.832;4.758;2022-10-16T06:21:31;14.10;99.90
11615;DHT22;5863;52.832;4.758;2022-10-16T06:23:58;14.00;99.90
11615;DHT22;5863;52.832;4.758;2022-10-16T06:26:28;14.00;99.90
11615;DHT22;5863;52.832;4.758;2022-10-16T06:28:56;14.00;99.90
11615;DHT22;5863;52.832;4.758;2022-10-16T06:31:25;14.00;99.90
11615;DHT22;5863;52.832;4.758;2022-10-16T06:33:53;14.00;99.90
11615;DHT22;5863;52.832;4.758;2022-10-16T06:36:20;14.00;99.90
11615;DHT22;5863;52.832;4.758;2022-10-16T06:38:47;14.00;99.90
11615;DHT22;5863;52.832;4.758;2022-10-16T06:41:16;14.00;99.90
11615;DHT22;5863;52.832;4.758;2022-10-16T06:43:43;14.00;99.90
11615;DHT22;5863;52.832;4.758;2022-10-16T06:46:12;14.00;99.90
11615;DHT22;5863;52.832;4.758;2022-10-16T06:48:41;14.10;99.90
11615;DHT22;5863;52.832;4.758;2022-10-16T06:51:10;14.10;99.90
11615;DHT22;5863;52.832;4.758;2022-10-16T06:53:40;14.20;99.90
11615;DHT22;5863;52.832;4.758;2022-10-16T06:56:08;14.30;99.90
11615;DHT22;5863;52.832;4.758;2022-10-16T06:58:35;14.40;99.90
11615;DHT22;5863;52.832;4.758;2022-10-16T07:01:02;14.40;99.90
11615;DHT22;5863;52.832;4.758;2022-10-16T07:03:28;14.40;99.90
11615;DHT22;5863;52.832;4.758;2022-10-16T07:05:56;14.40;99.90
11615;DHT22;5863;52.832;4.758;2022-10-16T07:08:24;14.40;99.90
11615;DHT22;5863;52.832;4.758;2022-10-16T07:10:58;14.40;99.90
11615;DHT22;5863;52.832;4.758;2022-10-16T07:13:25;14.40;99.90
11615;DHT22;5863;52.832;4.758;2022-10-16T07:15:52;14.40;99.90
11615;DHT22;5863;52.832;4.758;2022-10-16T07:18:18;14.50;99.90
11615;DHT22;5863;52.832;4.758;2022-10-16T07:20:45;14.50;99.90
11615;DHT22;5863;52.832;4.758;2022-10-16T07:23:13;14.60;99.90
11615;DHT22;5863;52.832;4.758;2022-10-16T07:25:40;14.70;99.90
11615;DHT22;5863;52.832;4.758;2022-10-16T07:28:06;14.70;99.90
11615;DHT22;5863;52.832;4.758;2022-10-16T07:30:35;14.80;99.90
11615;DHT22;5863;52.832;4.758;2022-10-16T07:33:03;14.90;99.90
11615;DHT22;5863;52.832;4.758;2022-10-16T07:35:29;14.80;99.90
11615;DHT22;5863;52.832;4.758;2022-10-16T07:37:56;15.00;99.90
11615;DHT22;5863;52.832;4.758;2022-10-16T07:40:24;15.10;99.90
11615;DHT22;5863;52.832;4.758;2022-10-16T07:42:52;15.10;99.90
11615;DHT22;5863;52.832;4.758;2022-10-16T07:45:19;15.20;99.90
11615;DHT22;5863;52.832;4.758;2022-10-16T07:47:45;15.40;99.90
11615;DHT22;5863;52.832;4.758;2022-10-16T07:50:12;15.40;99.90
11615;DHT22;5863;52.832;4.758;2022-10-16T07:52:39;15.50;99.90
11615;DHT22;5863;52.832;4.758;2022-10-16T07:55:06;15.50;99.90
11615;DHT22;5863;52.832;4.758;2022-10-16T07:57:34;15.50;99.90
11615;DHT22;5863;52.832;4.758;2022-10-16T08:00:01;15.50;99.90
11615;DHT22;5863;52.832;4.758;2022-10-16T08:02:28;15.60;99.90
11615;DHT22;5863;52.832;4.758;2022-10-16T08:04:55;15.60;99.90
11615;DHT22;5863;52.832;4.758;2022-10-16T08:07:22;15.80;99.90
11615;DHT22;5863;52.832;4.758;2022-10-16T08:09:49;15.90;99.90
11615;DHT22;5863;52.832;4.758;2022-10-16T08:12:16;15.90;99.90
11615;DHT22;5863;52.832;4.758;2022-10-16T08:14:45;16.00;99.90
11615;DHT22;5863;52.832;4.758;2022-10-16T08:17:15;16.00;99.90
11615;DHT22;5863;52.832;4.758;2022-10-16T08:19:44;15.90;99.90
11615;DHT22;5863;52.832;4.758;2022-10-16T08:22:11;15.90;99.90
11615;DHT22;5863;52.832;4.758;2022-10-16T08:24:38;15.90;99.90
11615;DHT22;5863;52.832;4.758;2022-10-16T08:27:04;15.80;99.90
11615;DHT22;5863;52.832;4.758;2022-10-16T08:29:31;15.80;99.90
11615;DHT22;5863;52.832;4.758;2022-10-16T08:31:59;15.80;99.90
11615;DHT22;5863;52.832;4.758;2022-10-16T08:34:26;15.80;99.90
11615;DHT22;5863;52.832;4.758;2022-10-16T08:36:53;15.80;99.90
11615;DHT22;5863;52.832;4.758;2022-10-16T08:39:19;15.80;99.90
11615;DHT22;5863;52.832;4.758;2022-10-16T08:42:11;15.80;99.90
11615;DHT22;5863;52.832;4.758;2022-10-16T08:45:15;15.80;99.90
11615;DHT22;5863;52.832;4.758;2022-10-16T08:47:51;15.90;99.90
11615;DHT22;5863;52.832;4.758;2022-10-16T08:50:24;15.90;99.90
11615;DHT22;5863;52.832;4.758;2022-10-16T08:52:53;15.90;99.90
11615;DHT22;5863;52.832;4.758;2022-10-16T08:55:33;15.90;99.90
11615;DHT22;5863;52.832;4.758;2022-10-16T08:58:11;15.90;99.90
11615;DHT22;5863;52.832;4.758;2022-10-16T09:00:38;16.00;99.90
11615;DHT22;5863;52.832;4.758;2022-10-16T09:03:16;16.00;99.90
11615;DHT22;5863;52.832;4.758;2022-10-16T09:06:06;16.00;99.90
11615;DHT22;5863;52.832;4.758;2022-10-16T09:08:39;16.00;99.90
11615;DHT22;5863;52.832;4.758;2022-10-16T09:11:14;16.10;99.90
11615;DHT22;5863;52.832;4.758;2022-10-16T09:13:48;16.10;99.90
11615;DHT22;5863;52.832;4.758;2022-10-16T09:16:19;16.20;99.90
11615;DHT22;5863;52.832;4.758;2022-10-16T09:18:56;16.20;99.90
11615;DHT22;5863;52.832;4.758;2022-10-16T09:21:27;16.20;99.90
11615;DHT22;5863;52.832;4.758;2022-10-16T09:23:57;16.30;99.90
11615;DHT22;5863;52.832;4.758;2022-10-16T09:26:24;16.30;99.90
11615;DHT22;5863;52.832;4.758;2022-10-16T09:28:52;16.40;99.90
11615;DHT22;5863;52.832;4.758;2022-10-16T09:31:20;16.50;99.90
11615;DHT22;5863;52.832;4.758;2022-10-16T09:33:51;16.60;99.90
11615;DHT22;5863;52.832;4.758;2022-10-16T09:36:20;16.60;99.90
11615;DHT22;5863;52.832;4.758;2022-10-16T09:38:49;16.60;99.90
11615;DHT22;5863;52.832;4.758;2022-10-16T09:41:18;16.50;99.90
11615;DHT22;5863;52.832;4.758;2022-10-16T09:43:52;16.60;99.90
11615;DHT22;5863;52.832;4.758;2022-10-16T09:46:25;16.60;99.90
11615;DHT22;5863;52.832;4.758;2022-10-16T09:48:56;16.60;99.90
11615;DHT22;5863;52.832;4.758;2022-10-16T09:51:25;16.60;99.90
11615;DHT22;5863;52.832;4.758;2022-10-16T09:53:56;16.70;99.90
11615;DHT22;5863;52.832;4.758;2022-10-16T09:56:25;16.70;99.90
11615;DHT22;5863;52.832;4.758;2022-10-16T09:58:53;16.70;99.90
11615;DHT22;5863;52.832;4.758;2022-10-16T10:01:21;16.80;99.90
11615;DHT22;5863;52.832;4.758;2022-10-16T10:03:49;16.80;99.90
11615;DHT22;5863;52.832;4.758;2022-10-16T10:06:22;16.90;99.90
11615;DHT22;5863;52.832;4.758;2022-10-16T10:09:15;17.00;99.90
11615;DHT22;5863;52.832;4.758;2022-10-16T10:11:52;17.00;99.90
11615;DHT22;5863;52.832;4.758;2022-10-16T10:14:22;17.00;99.90
11615;DHT22;5863;52.832;4.758;2022-10-16T10:16:50;17.10;99.90
11615;DHT22;5863;52.832;4.758;2022-10-16T10:19:18;17.10;99.90
11615;DHT22;5863;52.832;4.758;2022-10-16T10:21:47;17.20;99.90
11615;DHT22;5863;52.832;4.758;2022-10-16T10:24:15;17.30;99.90
11615;DHT22;5863;52.832;4.758;2022-10-16T10:26:49;17.30;99.90
11615;DHT22;5863;52.832;4.758;2022-10-16T10:29:25;17.40;99.90
11615;DHT22;5863;52.832;4.758;2022-10-16T10:31:59;17.40;99.90
11615;DHT22;5863;52.832;4.758;2022-10-16T10:34:44;17.50;99.90
11615;DHT22;5863;52.832;4.758;2022-10-16T10:37:28;17.50;99.90
11615;DHT22;5863;52.832;4.758;2022-10-16T10:40:07;17.60;99.90
11615;DHT22;5863;52.832;4.758;2022-10-16T10:42:44;17.60;99.90
11615;DHT22;5863;52.832;4.758;2022-10-16T10:45:22;17.60;99.90
11615;DHT22;5863;52.832;4.758;2022-10-16T10:48:08;17.60;99.90
11615;DHT22;5863;52.832;4.758;2022-10-16T10:50:42;17.60;99.90
11615;DHT22;5863;52.832;4.758;2022-10-16T10:53:19;17.60;99.90
11615;DHT22;5863;52.832;4.758;2022-10-16T10:55:52;17.60;99.90
11615;DHT22;5863;52.832;4.758;2022-10-16T10:58:38;17.60;99.90
11615;DHT22;5863;52.832;4.758;2022-10-16T11:01:12;17.60;99.90
11615;DHT22;5863;52.832;4.758;2022-10-16T11:03:53;17.60;99.90
11615;DHT22;5863;52.832;4.758;2022-10-16T11:06:26;17.60;99.90
11615;DHT22;5863;52.832;4.758;2022-10-16T11:09:02;17.60;99.90
11615;DHT22;5863;52.832;4.758;2022-10-16T11:11:34;17.60;99.90
11615;DHT22;5863;52.832;4.758;2022-10-16T11:14:04;17.50;99.90
11615;DHT22;5863;52.832;4.758;2022-10-16T11:16:36;17.50;99.90
11615;DHT22;5863;52.832;4.758;2022-10-16T11:19:11;17.50;99.90
11615;DHT22;5863;52.832;4.758;2022-10-16T11:21:44;17.40;99.90
11615;DHT22;5863;52.832;4.758;2022-10-16T11:24:20;17.30;99.90
11615;DHT22;5863;52.832;4.758;2022-10-16T11:26:49;17.40;99.90
11615;DHT22;5863;52.832;4.758;2022-10-16T11:29:23;17.50;99.90
11615;DHT22;5863;52.832;4.758;2022-10-16T11:31:55;17.40;99.90
11615;DHT22;5863;52.832;4.758;2022-10-16T11:34:27;17.40;99.90
11615;DHT22;5863;52.832;4.758;2022-10-16T11:36:58;17.30;99.90
11615;DHT22;5863;52.832;4.758;2022-10-16T11:39:30;17.30;99.90
11615;DHT22;5863;52.832;4.758;2022-10-16T11:42:02;17.30;99.90
11615;DHT22;5863;52.832;4.758;2022-10-16T11:44:40;17.30;99.90
11615;DHT22;5863;52.832;4.758;2022-10-16T11:47:16;17.30;99.90
11615;DHT22;5863;52.832;4.758;2022-10-16T11:49:47;17.30;99.90
11615;DHT22;5863;52.832;4.758;2022-10-16T11:52:20;17.10;99.90
11615;DHT22;5863;52.832;4.758;2022-10-16T11:54:54;17.10;99.90
11615;DHT22;5863;52.832;4.758;2022-10-16T11:57:24;17.00;99.90
11615;DHT22;5863;52.832;4.758;2022-10-16T11:59:57;17.00;99.90
11615;DHT22;5863;52.832;4.758;2022-10-16T12:02:52;16.90;99.90
11615;DHT22;5863;52.832;4.758;2022-10-16T12:05:26;16.80;99.90
11615;DHT22;5863;52.832;4.758;2022-10-16T12:08:04;16.80;99.90
11615;DHT22;5863;52.832;4.758;2022-10-16T12:10:33;16.80;99.90
11615;DHT22;5863;52.832;4.758;2022-10-16T12:13:02;16.70;99.90
11615;DHT22;5863;52.832;4.758;2022-10-16T12:15:31;16.70;99.90
11615;DHT22;5863;52.832;4.758;2022-10-16T12:17:58;16.70;99.90
11615;DHT22;5863;52.832;4.758;2022-10-16T12:20:28;16.70;99.90
11615;DHT22;5863;52.832;4.758;2022-10-16T12:22:59;16.70;99.90
11615;DHT22;5863;52.832;4.758;2022-10-16T12:25:28;16.70;99.90
11615;DHT22;5863;52.832;4.758;2022-10-16T12:27:59;16.70;99.90
11615;DHT22;5863;52.832;4.758;2022-10-16T12:30:29;16.70;99.90
11615;DHT22;5863;52.832;4.758;2022-10-16T12:32:57;16.70;99.90
11615;DHT22;5863;52.832;4.758;2022-10-16T12:35:27;16.70;99.90
11615;DHT22;5863;52.832;4.758;2022-10-16T12:38:03;16.80;99.90
11615;DHT22;5863;52.832;4.758;2022-10-16T12:40:33;16.80;99.90
11615;DHT22;5863;52.832;4.758;2022-10-16T12:43:13;16.90;99.90
11615;DHT22;5863;52.832;4.758;2022-10-16T12:46:00;17.00;99.90
11615;DHT22;5863;52.832;4.758;2022-10-16T12:48:27;17.00;99.90
11615;DHT22;5863;52.832;4.758;2022-10-16T12:50:54;17.10;99.90
11615;DHT22;5863;52.832;4.758;2022-10-16T12:53:22;17.20;99.90
11615;DHT22;5863;52.832;4.758;2022-10-16T12:55:57;17.20;99.90
11615;DHT22;5863;52.832;4.758;2022-10-16T12:58:53;17.30;99.90
11615;DHT22;5863;52.832;4.758;2022-10-16T13:01:34;17.30;99.90
11615;DHT22;5863;52.832;4.758;2022-10-16T13:04:22;17.40;99.90
11615;DHT22;5863;52.832;4.758;2022-10-16T13:06:59;17.40;99.90
11615;DHT22;5863;52.832;4.758;2022-10-16T13:09:43;17.40;99.90
11615;DHT22;5863;52.832;4.758;2022-10-16T13:12:21;17.50;99.90
11615;DHT22;5863;52.832;4.758;2022-10-16T13:15:12;17.50;99.90
11615;DHT22;5863;52.832;4.758;2022-10-16T13:17:47;17.60;99.90
11615;DHT22;5863;52.832;4.758;2022-10-16T13:20:21;17.60;99.90
11615;DHT22;5863;52.832;4.758;2022-10-16T13:22:58;17.70;99.90
11615;DHT22;5863;52.832;4.758;2022-10-16T13:25:38;17.70;99.90
11615;DHT22;5863;52.832;4.758;2022-10-16T13:28:09;17.70;99.90
11615;DHT22;5863;52.832;4.758;2022-10-16T13:30:40;17.70;99.90
11615;DHT22;5863;52.832;4.758;2022-10-16T13:33:14;17.70;99.90
11615;DHT22;5863;52.832;4.758;2022-10-16T13:35:48;17.70;99.90
11615;DHT22;5863;52.832;4.758;2022-10-16T13:38:19;17.70;99.90
11615;DHT22;5863;52.832;4.758;2022-10-16T13:40:51;17.70;99.90
11615;DHT22;5863;52.832;4.758;2022-10-16T13:43:21;17.70;99.90
11615;DHT22;5863;52.832;4.758;2022-10-16T13:46:01;17.70;99.90
11615;DHT22;5863;52.832;4.758;2022-10-16T13:48:29;17.60;99.90
11615;DHT22;5863;52.832;4.758;2022-10-16T13:51:04;17.70;99.90
11615;DHT22;5863;52.832;4.758;2022-10-16T13:53:32;17.60;99.90
11615;DHT22;5863;52.832;4.758;2022-10-16T13:56:00;17.60;99.90
11615;DHT22;5863;52.832;4.758;2022-10-16T13:58:27;17.50;99.90
11615;DHT22;5863;52.832;4.758;2022-10-16T14:00:56;17.50;99.90
11615;DHT22;5863;52.832;4.758;2022-10-16T14:03:25;17.40;99.90
11615;DHT22;5863;52.832;4.758;2022-10-16T14:05:54;17.40;99.90
11615;DHT22;5863;52.832;4.758;2022-10-16T14:08:22;17.30;99.90
11615;DHT22;5863;52.832;4.758;2022-10-16T14:10:52;17.20;99.90
11615;DHT22;5863;52.832;4.758;2022-10-16T14:13:23;17.10;99.90
11615;DHT22;5863;52.832;4.758;2022-10-16T14:15:52;17.20;99.90
11615;DHT22;5863;52.832;4.758;2022-10-16T14:18:22;17.20;99.90
11615;DHT22;5863;52.832;4.758;2022-10-16T14:20:50;17.00;99.90
11615;DHT22;5863;52.832;4.758;2022-10-16T14:23:22;16.90;99.90
11615;DHT22;5863;52.832;4.758;2022-10-16T14:25:52;16.90;99.90
11615;DHT22;5863;52.832;4.758;2022-10-16T14:28:20;16.80;99.90
11615;DHT22;5863;52.832;4.758;2022-10-16T14:30:52;16.80;99.90
11615;DHT22;5863;52.832;4.758;2022-10-16T14:33:30;16.80;99.90
11615;DHT22;5863;52.832;4.758;2022-10-16T14:36:02;16.80;99.90
11615;DHT22;5863;52.832;4.758;2022-10-16T14:38:30;16.70;99.90
11615;DHT22;5863;52.832;4.758;2022-10-16T14:40:58;16.70;99.90
11615;DHT22;5863;52.832;4.758;2022-10-16T14:43:31;16.70;99.90
11615;DHT22;5863;52.832;4.758;2022-10-16T14:45:59;16.70;99.90
11615;DHT22;5863;52.832;4.758;2022-10-16T14:48:26;16.70;99.90
11615;DHT22;5863;52.832;4.758;2022-10-16T14:50:53;16.60;99.90
11615;DHT22;5863;52.832;4.758;2022-10-16T14:53:21;16.60;99.90
11615;DHT22;5863;52.832;4.758;2022-10-16T14:55:48;16.60;99.90
11615;DHT22;5863;52.832;4.758;2022-10-16T14:58:16;16.60;99.90
11615;DHT22;5863;52.832;4.758;2022-10-16T15:00:44;16.60;99.90
11615;DHT22;5863;52.832;4.758;2022-10-16T15:03:12;16.50;99.90
11615;DHT22;5863;52.832;4.758;2022-10-16T15:05:38;16.40;99.90
11615;DHT22;5863;52.832;4.758;2022-10-16T15:08:05;16.40;99.90
11615;DHT22;5863;52.832;4.758;2022-10-16T15:10:39;16.40;99.90
11615;DHT22;5863;52.832;4.758;2022-10-16T15:13:06;16.30;99.90
11615;DHT22;5863;52.832;4.758;2022-10-16T15:15:34;16.30;99.90
11615;DHT22;5863;52.832;4.758;2022-10-16T15:18:02;16.20;99.90
11615;DHT22;5863;52.832;4.758;2022-10-16T15:20:30;16.20;99.90
11615;DHT22;5863;52.832;4.758;2022-10-16T15:23:00;16.20;99.90
11615;DHT22;5863;52.832;4.758;2022-10-16T15:25:35;16.20;99.90
11615;DHT22;5863;52.832;4.758;2022-10-16T15:28:03;16.10;99.90
11615;DHT22;5863;52.832;4.758;2022-10-16T15:30:31;16.10;99.90
11615;DHT22;5863;52.832;4.758;2022-10-16T15:32:58;16.00;99.90
11615;DHT22;5863;52.832;4.758;2022-10-16T15:35:25;16.00;99.90
11615;DHT22;5863;52.832;4.758;2022-10-16T15:37:51;15.90;99.90
11615;DHT22;5863;52.832;4.758;2022-10-16T15:40:19;15.90;99.90
11615;DHT22;5863;52.832;4.758;2022-10-16T15:42:47;15.90;99.90
11615;DHT22;5863;52.832;4.758;2022-10-16T15:45:15;15.80;99.90
11615;DHT22;5863;52.832;4.758;2022-10-16T15:47:43;15.80;99.90
11615;DHT22;5863;52.832;4.758;2022-10-16T15:50:10;15.80;99.90
11615;DHT22;5863;52.832;4.758;2022-10-16T15:52:38;15.70;99.90
11615;DHT22;5863;52.832;4.758;2022-10-16T15:55:06;15.70;99.90
11615;DHT22;5863;52.832;4.758;2022-10-16T15:57:33;15.60;99.90
11615;DHT22;5863;52.832;4.758;2022-10-16T16:00:01;15.60;99.90
11615;DHT22;5863;52.832;4.758;2022-10-16T16:02:27;15.60;99.90